createdAt,value
2018-05-15T00:01:25.206Z,30.23
2018-05-15T00:03:53.885Z,27.43
2018-05-15T00:06:22.264Z,24.47
2018-05-15T00:08:50.709Z,22.47
2018-05-15T00:11:19.156Z,28.30
2018-05-15T00:13:47.565Z,29.67
2018-05-15T00:16:15.971Z,34.57
2018-05-15T00:18:44.779Z,45.67
2018-05-15T00:21:13.195Z,41.37
2018-05-15T00:23:41.613Z,42.63
2018-05-15T00:26:10.039Z,40.37
2018-05-15T00:28:38.447Z,41.00
2018-05-15T00:31:06.843Z,41.90
2018-05-15T00:33:35.671Z,38.83
2018-05-15T00:36:04.107Z,45.97
2018-05-15T00:38:32.516Z,46.30
2018-05-15T00:41:01.233Z,41.97
2018-05-15T00:43:29.699Z,41.73
2018-05-15T00:45:58.122Z,38.87
2018-05-15T00:48:26.980Z,42.97
2018-05-15T00:50:55.386Z,47.37
2018-05-15T00:53:23.795Z,51.23
2018-05-15T00:55:52.236Z,51.10
2018-05-15T00:58:20.649Z,47.00
2018-05-15T01:00:49.072Z,48.60
2018-05-15T01:03:17.864Z,46.43
2018-05-15T01:05:46.269Z,40.77
2018-05-15T01:08:14.692Z,36.70
2018-05-15T01:10:43.128Z,31.80
2018-05-15T01:13:11.517Z,31.77
2018-05-15T01:15:39.923Z,31.57
2018-05-15T01:18:08.510Z,31.07
2018-05-15T01:20:36.959Z,30.80
2018-05-15T01:23:05.358Z,26.17
2018-05-15T01:25:33.956Z,27.80
2018-05-15T01:28:02.378Z,29.70
2018-05-15T01:30:30.960Z,33.63
2018-05-15T01:32:59.752Z,33.80
2018-05-15T01:35:28.147Z,40.47
2018-05-15T01:37:56.568Z,34.60
2018-05-15T01:40:25.095Z,35.63
2018-05-15T01:42:53.539Z,40.17
2018-05-15T01:45:21.961Z,38.87
2018-05-15T01:47:50.700Z,38.00
2018-05-15T01:50:19.106Z,35.00
2018-05-15T01:52:47.563Z,36.70
2018-05-15T01:55:16.403Z,40.70
2018-05-15T01:57:44.803Z,46.77
2018-05-15T02:00:13.204Z,37.70
2018-05-15T02:02:41.714Z,38.33
2018-05-15T02:05:10.137Z,45.03
2018-05-15T02:07:38.557Z,46.67
2018-05-15T02:10:06.987Z,45.23
2018-05-15T02:12:35.397Z,47.20
2018-05-15T02:15:03.835Z,51.00
2018-05-15T02:17:32.559Z,58.30
2018-05-15T02:20:00.954Z,49.63
2018-05-15T02:22:29.364Z,49.07
2018-05-15T02:24:57.814Z,53.50
2018-05-15T02:27:26.250Z,48.53
2018-05-15T02:29:54.652Z,46.03
2018-05-15T02:32:23.319Z,51.50
2018-05-15T02:34:51.727Z,50.37
2018-05-15T02:37:20.269Z,57.67
2018-05-15T02:39:48.979Z,52.53
2018-05-15T02:42:17.432Z,53.40
2018-05-15T02:44:45.861Z,60.20
2018-05-15T02:47:14.336Z,65.07
2018-05-15T02:49:42.775Z,62.70
2018-05-15T02:52:11.188Z,58.73
2018-05-15T02:54:40.179Z,55.07
2018-05-15T02:57:08.611Z,54.50
2018-05-15T02:59:37.010Z,48.20
2018-05-15T03:02:05.779Z,52.77
2018-05-15T03:04:34.223Z,56.57
2018-05-15T03:07:02.655Z,49.53
2018-05-15T03:09:31.476Z,51.40
2018-05-15T03:11:59.922Z,58.70
2018-05-15T03:14:28.340Z,52.97
2018-05-15T03:16:57.224Z,45.87
2018-05-15T03:19:25.612Z,44.83
2018-05-15T03:21:54.033Z,46.87
2018-05-15T03:24:22.782Z,51.07
2018-05-15T03:26:51.175Z,44.40
2018-05-15T03:29:19.560Z,44.73
2018-05-15T03:31:48.297Z,43.93
2018-05-15T03:34:16.691Z,40.97
2018-05-15T03:36:45.103Z,40.93
2018-05-15T03:39:13.759Z,46.73
2018-05-15T03:41:42.169Z,40.53
2018-05-15T03:44:10.563Z,37.90
2018-05-15T03:46:38.991Z,48.53
2018-05-15T03:49:07.445Z,44.13
2018-05-15T03:51:35.897Z,41.60
2018-05-15T03:54:04.631Z,39.77
2018-05-15T03:56:33.049Z,42.10
2018-05-15T03:59:01.452Z,37.87
2018-05-15T04:01:41.564Z,43.23
2018-05-15T04:04:21.956Z,40.60
2018-05-15T04:07:02.657Z,40.60
2018-05-15T04:09:31.054Z,34.73
2018-05-15T04:11:59.474Z,35.17
2018-05-15T04:14:29.170Z,33.97
2018-05-15T04:16:57.714Z,35.03
2018-05-15T04:19:26.133Z,28.47
2018-05-15T04:21:54.725Z,29.20
2018-05-15T04:24:23.162Z,34.43
2018-05-15T04:26:51.588Z,32.50
2018-05-15T04:29:20.478Z,32.97
2018-05-15T04:31:48.946Z,31.93
2018-05-15T04:34:17.378Z,35.80
2018-05-15T04:36:46.138Z,31.17
2018-05-15T04:39:14.548Z,35.33
2018-05-15T04:41:42.960Z,33.60
2018-05-15T04:44:11.415Z,36.27
2018-05-15T04:46:39.807Z,38.27
2018-05-15T04:49:08.247Z,32.57
2018-05-15T04:51:36.927Z,38.00
2018-05-15T04:54:05.359Z,27.90
2018-05-15T04:56:33.761Z,28.47
2018-05-15T04:59:02.563Z,28.53
2018-05-15T05:01:30.964Z,24.40
2018-05-15T05:03:59.368Z,25.70
2018-05-15T05:06:28.559Z,25.80
2018-05-15T05:08:57.008Z,22.67
2018-05-15T05:11:25.419Z,19.53
2018-05-15T05:13:54.972Z,18.77
2018-05-15T05:16:23.387Z,17.00
2018-05-15T05:18:51.774Z,18.57
2018-05-15T05:21:20.214Z,19.17
2018-05-15T05:23:48.631Z,21.83
2018-05-15T05:26:17.068Z,19.97
2018-05-15T05:28:45.585Z,26.07
2018-05-15T05:31:13.984Z,20.63
2018-05-15T05:33:42.429Z,21.23
2018-05-15T05:36:11.576Z,21.70
2018-05-15T05:38:40.029Z,25.93
2018-05-15T05:41:08.417Z,28.43
2018-05-15T05:43:37.512Z,26.03
2018-05-15T05:46:05.963Z,22.03
2018-05-15T05:48:34.337Z,18.93
2018-05-15T05:51:03.168Z,21.67
2018-05-15T05:53:31.609Z,20.53
2018-05-15T05:56:00.045Z,25.27
2018-05-15T05:58:28.705Z,20.40
2018-05-15T06:00:57.128Z,19.47
2018-05-15T06:03:25.534Z,21.27
2018-05-15T06:05:53.991Z,35.10
2018-05-15T06:08:22.415Z,24.40
2018-05-15T06:10:50.831Z,30.23
2018-05-15T06:13:19.447Z,25.23
2018-05-15T06:15:47.890Z,21.80
2018-05-15T06:18:16.318Z,21.50
2018-05-15T06:20:45.235Z,24.87
2018-05-15T06:23:13.539Z,22.57
2018-05-15T06:25:41.952Z,23.80
2018-05-15T06:28:10.407Z,36.13
2018-05-15T06:30:38.802Z,22.10
2018-05-15T06:33:07.296Z,26.63
2018-05-15T06:35:35.759Z,25.23
2018-05-15T06:38:04.181Z,24.70
2018-05-15T06:40:32.573Z,24.47
2018-05-15T06:43:01.380Z,23.10
2018-05-15T06:45:29.809Z,22.00
2018-05-15T06:47:58.223Z,18.97
2018-05-15T06:50:27.216Z,18.10
2018-05-15T06:52:55.707Z,20.23
2018-05-15T06:55:24.107Z,31.77
2018-05-15T06:57:52.841Z,25.60
2018-05-15T07:00:21.265Z,24.63
2018-05-15T07:02:49.670Z,24.63
2018-05-15T07:05:18.114Z,21.63
2018-05-15T07:07:46.573Z,21.57
2018-05-15T07:10:14.942Z,19.77
2018-05-15T07:12:43.623Z,19.97
2018-05-15T07:15:11.992Z,27.20
2018-05-15T07:17:40.387Z,16.97
2018-05-15T07:20:08.850Z,19.07
2018-05-15T07:22:37.291Z,21.93
2018-05-15T07:25:05.671Z,16.27
2018-05-15T07:27:34.278Z,13.23
2018-05-15T07:30:02.696Z,17.27
2018-05-15T07:32:31.097Z,12.60
2018-05-15T07:34:59.549Z,14.77
2018-05-15T07:37:27.997Z,14.00
2018-05-15T07:39:56.450Z,12.87
2018-05-15T07:42:25.171Z,15.37
2018-05-15T07:44:53.561Z,16.13
2018-05-15T07:47:21.966Z,12.93
2018-05-15T07:49:50.804Z,16.50
2018-05-15T07:52:19.195Z,27.73
2018-05-15T07:54:47.602Z,21.20
2018-05-15T07:57:16.055Z,18.37
2018-05-15T07:59:44.448Z,24.77
2018-05-15T08:02:13.041Z,27.17
2018-05-15T08:04:41.693Z,17.33
2018-05-15T08:07:10.096Z,23.50
2018-05-15T08:09:38.526Z,29.50
2018-05-15T08:12:06.992Z,35.57
2018-05-15T08:14:35.412Z,16.30
2018-05-15T08:17:03.847Z,14.37
2018-05-15T08:19:32.643Z,17.10
2018-05-15T08:22:01.096Z,16.07
2018-05-15T08:24:29.496Z,18.40
2018-05-15T08:26:58.100Z,11.80
2018-05-15T08:29:26.485Z,17.90
2018-05-15T08:31:54.922Z,15.03
2018-05-15T08:34:23.680Z,16.90
2018-05-15T08:36:52.071Z,13.67
2018-05-15T08:39:20.515Z,18.93
2018-05-15T08:41:49.332Z,12.83
2018-05-15T08:44:17.730Z,19.50
2018-05-15T08:46:46.169Z,13.00
2018-05-15T08:49:14.779Z,17.83
2018-05-15T08:51:43.187Z,17.70
2018-05-15T08:54:11.583Z,19.57
2018-05-15T08:56:40.224Z,14.97
2018-05-15T08:59:08.637Z,16.37
2018-05-15T09:01:37.042Z,13.87
2018-05-15T09:04:05.788Z,18.47
2018-05-15T09:06:34.201Z,11.17
2018-05-15T09:09:02.693Z,12.85
2018-05-15T09:11:31.356Z,18.50
2018-05-15T09:13:59.749Z,10.60
2018-05-15T09:16:28.798Z,13.93
2018-05-15T09:18:57.531Z,14.77
2018-05-15T09:21:25.934Z,12.00
2018-05-15T09:23:54.324Z,14.33
2018-05-15T09:26:23.032Z,13.73
2018-05-15T09:28:51.418Z,19.50
2018-05-15T09:31:19.842Z,23.53
2018-05-15T09:33:48.890Z,17.87
2018-05-15T09:36:17.285Z,10.10
2018-05-15T09:38:45.695Z,23.10
2018-05-15T09:41:14.144Z,74.50
2018-05-15T09:43:57.473Z,24.40
2018-05-15T09:46:26.141Z,15.63
2018-05-15T09:48:54.618Z,17.77
2018-05-15T09:51:23.016Z,16.20
2018-05-15T09:53:51.478Z,14.20
2018-05-15T09:56:19.876Z,16.62
2018-05-15T09:58:48.281Z,17.48
2018-05-15T10:01:17.025Z,18.10
2018-05-15T10:03:45.540Z,8.75
2018-05-15T10:06:13.947Z,21.60
2018-05-15T10:08:42.419Z,10.18
2018-05-15T10:11:10.855Z,12.52
2018-05-15T10:13:39.241Z,12.65
2018-05-15T10:16:08.127Z,15.13
2018-05-15T10:18:36.527Z,9.90
2018-05-15T10:21:04.948Z,16.67
2018-05-15T10:23:33.392Z,11.80
2018-05-15T10:26:01.795Z,19.98
2018-05-15T10:28:30.203Z,18.80
2018-05-15T10:30:59.591Z,22.37
2018-05-15T10:33:27.998Z,12.35
2018-05-15T10:35:56.399Z,10.65
2018-05-15T10:38:25.180Z,17.65
2018-05-15T10:40:53.579Z,10.27
2018-05-15T10:43:22.011Z,13.65
2018-05-15T10:45:50.877Z,8.30
2018-05-15T10:48:19.265Z,11.70
2018-05-15T10:50:47.691Z,16.67
2018-05-15T10:53:16.139Z,13.48
2018-05-15T10:55:44.587Z,10.52
2018-05-15T10:58:12.982Z,14.00
2018-05-15T11:00:41.823Z,16.00
2018-05-15T11:03:10.217Z,12.93
2018-05-15T11:05:38.639Z,16.90
2018-05-15T11:08:07.478Z,14.15
2018-05-15T11:10:35.890Z,9.52
2018-05-15T11:13:04.278Z,7.28
2018-05-15T11:15:32.777Z,4.68
2018-05-15T11:18:12.879Z,4.62
2018-05-15T11:20:53.113Z,6.22
2018-05-15T11:23:33.719Z,5.57
2018-05-15T11:26:02.506Z,7.03
2018-05-15T11:28:30.936Z,6.25
2018-05-15T11:30:59.334Z,4.55
2018-05-15T11:33:27.932Z,6.30
2018-05-15T11:35:56.378Z,7.90
2018-05-15T11:38:24.828Z,5.70
2018-05-15T11:40:53.583Z,4.30
2018-05-15T11:43:21.983Z,5.85
2018-05-15T11:45:50.378Z,6.40
2018-05-15T11:48:19.532Z,4.65
2018-05-15T11:50:48.323Z,7.25
2018-05-15T11:53:16.590Z,4.75
2018-05-15T11:55:44.689Z,8.77
2018-05-15T11:58:13.089Z,5.95
2018-05-15T12:00:41.491Z,8.10
2018-05-15T12:03:10.247Z,10.10
2018-05-15T12:05:38.633Z,5.28
2018-05-15T12:08:07.110Z,7.50
2018-05-15T12:10:35.843Z,6.90
2018-05-15T12:13:04.231Z,7.12
2018-05-15T12:15:32.626Z,8.43
2018-05-15T12:18:01.427Z,16.52
2018-05-15T12:20:29.810Z,7.28
2018-05-15T12:22:58.212Z,6.47
2018-05-15T12:25:27.088Z,8.98
2018-05-15T12:27:55.560Z,10.52
2018-05-15T12:30:23.928Z,9.85
2018-05-15T12:32:52.727Z,5.97
2018-05-15T12:35:21.202Z,8.55
2018-05-15T12:37:49.612Z,6.15
2018-05-15T12:40:18.381Z,6.18
2018-05-15T12:42:46.826Z,6.82
2018-05-15T12:45:15.224Z,8.82
2018-05-15T12:47:44.063Z,9.27
2018-05-15T12:50:12.452Z,5.85
2018-05-15T12:52:41.150Z,8.13
2018-05-15T12:55:09.808Z,6.40
2018-05-15T12:57:38.425Z,8.18
2018-05-15T13:00:06.893Z,4.68
2018-05-15T13:02:35.318Z,5.03
2018-05-15T13:05:03.773Z,6.40
2018-05-15T13:07:32.251Z,8.93
2018-05-15T13:10:00.992Z,9.27
2018-05-15T13:12:29.490Z,6.97
2018-05-15T13:14:57.882Z,8.35
2018-05-15T13:17:26.488Z,10.98
2018-05-15T13:19:54.885Z,5.28
2018-05-15T13:22:23.269Z,6.32
2018-05-15T13:24:52.097Z,12.65
2018-05-15T13:27:20.501Z,5.20
2018-05-15T13:29:48.896Z,8.10
2018-05-15T13:32:17.440Z,11.52
2018-05-15T13:34:46.002Z,9.75
2018-05-15T13:37:14.405Z,8.88
2018-05-15T13:39:43.487Z,6.07
2018-05-15T13:42:11.879Z,7.87
2018-05-15T13:44:40.265Z,8.30
2018-05-15T13:47:09.036Z,6.15
2018-05-15T13:49:37.452Z,5.93
2018-05-15T13:52:05.834Z,10.40
2018-05-15T13:54:34.604Z,10.48
2018-05-15T13:57:02.995Z,5.62
2018-05-15T13:59:31.453Z,10.03
2018-05-15T14:02:00.240Z,8.70
2018-05-15T14:04:28.691Z,10.00
2018-05-15T14:06:58.184Z,9.00
2018-05-15T14:09:28.562Z,7.63
2018-05-15T14:11:59.096Z,6.70
2018-05-15T14:14:28.416Z,9.63
2018-05-15T14:16:56.945Z,8.77
2018-05-15T14:19:27.436Z,11.37
2018-05-15T14:21:56.839Z,10.67
2018-05-15T14:24:26.239Z,8.97
2018-05-15T14:26:54.622Z,6.70
2018-05-15T14:29:23.056Z,9.87
2018-05-15T14:31:51.496Z,6.73
2018-05-15T14:34:19.913Z,5.70
2018-05-15T14:36:48.476Z,6.03
2018-05-15T14:39:16.850Z,7.57
2018-05-15T14:41:57.128Z,4.87
2018-05-15T14:44:25.546Z,4.07
2018-05-15T14:46:54.010Z,3.83
2018-05-15T14:49:22.503Z,7.33
2018-05-15T14:51:50.887Z,6.17
2018-05-15T14:54:19.305Z,4.07
2018-05-15T14:56:47.699Z,4.33
2018-05-15T14:59:16.148Z,6.90
2018-05-15T15:01:44.549Z,4.80
2018-05-15T15:04:12.972Z,4.43
2018-05-15T15:06:41.496Z,4.37
2018-05-15T15:09:09.935Z,8.27
2018-05-15T15:11:38.403Z,5.50
2018-05-15T15:14:06.832Z,2.60
2018-05-15T15:16:35.330Z,4.17
2018-05-15T15:19:03.717Z,4.43
2018-05-15T15:21:32.155Z,7.33
2018-05-15T15:24:00.531Z,2.83
2018-05-15T15:26:28.963Z,6.67
2018-05-15T15:28:57.413Z,3.83
2018-05-15T15:31:25.902Z,3.00
2018-05-15T15:33:54.619Z,2.80
2018-05-15T15:36:23.087Z,2.60
2018-05-15T15:38:51.522Z,3.80
2018-05-15T15:41:20.447Z,4.27
2018-05-15T15:43:48.904Z,4.40
2018-05-15T15:46:17.357Z,7.43
2018-05-15T15:48:45.762Z,3.23
2018-05-15T15:51:14.187Z,2.50
2018-05-15T15:53:42.658Z,5.70
2018-05-15T15:56:11.063Z,2.90
2018-05-15T15:58:39.440Z,4.17
2018-05-15T16:01:07.826Z,2.80
2018-05-15T16:03:36.261Z,3.07
2018-05-15T16:06:04.691Z,2.77
2018-05-15T16:08:33.100Z,5.47
2018-05-15T16:11:01.533Z,6.93
2018-05-15T16:13:29.993Z,7.87
2018-05-15T16:15:58.381Z,4.18
2018-05-15T16:18:26.807Z,6.32
2018-05-15T16:20:55.200Z,4.05
2018-05-15T16:23:23.610Z,6.55
2018-05-15T16:25:52.042Z,5.70
2018-05-15T16:28:20.409Z,3.47
2018-05-15T16:30:48.859Z,4.60
2018-05-15T16:33:17.234Z,3.63
2018-05-15T16:35:45.642Z,3.33
2018-05-15T16:38:14.119Z,7.07
2018-05-15T16:40:42.531Z,3.57
2018-05-15T16:43:11.003Z,4.47
2018-05-15T16:45:39.413Z,5.53
2018-05-15T16:48:07.815Z,5.27
2018-05-15T16:50:36.208Z,4.77
2018-05-15T16:53:04.723Z,7.73
2018-05-15T16:55:33.160Z,6.70
2018-05-15T16:58:01.569Z,4.40
2018-05-15T17:00:30.111Z,6.03
2018-05-15T17:02:58.480Z,8.73
2018-05-15T17:05:26.976Z,9.40
2018-05-15T17:07:55.453Z,10.20
2018-05-15T17:10:23.839Z,10.93
2018-05-15T17:12:52.326Z,8.23
2018-05-15T17:15:20.722Z,16.10
2018-05-15T17:17:49.164Z,10.50
2018-05-15T17:20:17.622Z,10.30
2018-05-15T17:22:46.126Z,9.63
2018-05-15T17:25:14.547Z,9.00
2018-05-15T17:27:43.019Z,8.53
2018-05-15T17:30:11.433Z,13.83
2018-05-15T17:32:39.868Z,10.17
2018-05-15T17:35:08.243Z,10.03
2018-05-15T17:37:36.640Z,10.07
2018-05-15T17:40:05.121Z,10.90
2018-05-15T17:42:33.528Z,6.60
2018-05-15T17:45:01.979Z,11.07
2018-05-15T17:47:30.460Z,15.03
2018-05-15T17:49:58.845Z,14.37
2018-05-15T17:52:27.303Z,15.70
2018-05-15T17:54:55.683Z,10.63
2018-05-15T17:57:24.142Z,10.00
2018-05-15T17:59:52.657Z,11.23
2018-05-15T18:02:21.031Z,10.63
2018-05-15T18:04:49.439Z,14.77
2018-05-15T18:07:17.860Z,15.03
2018-05-15T18:09:46.255Z,13.03
2018-05-15T18:12:14.692Z,15.87
2018-05-15T18:14:43.131Z,7.57
2018-05-15T18:17:11.548Z,14.27
2018-05-15T18:19:40.021Z,11.03
2018-05-15T18:22:08.507Z,14.13
2018-05-15T18:24:36.908Z,12.77
2018-05-15T18:27:05.356Z,13.20
2018-05-15T18:29:33.772Z,11.60
2018-05-15T18:32:02.182Z,13.27
2018-05-15T18:34:30.645Z,18.63
2018-05-15T18:36:59.031Z,16.17
2018-05-15T18:39:27.431Z,13.70
2018-05-15T18:41:55.871Z,14.80
2018-05-15T18:44:24.485Z,16.10
2018-05-15T18:46:53.112Z,14.97
2018-05-15T18:49:21.569Z,13.47
2018-05-15T18:51:50.004Z,12.83
2018-05-15T18:54:18.430Z,16.03
2018-05-15T18:56:46.887Z,15.13
2018-05-15T18:59:15.336Z,9.87
2018-05-15T19:01:43.755Z,9.93
2018-05-15T19:04:12.199Z,21.50
2018-05-15T19:06:40.721Z,14.13
2018-05-15T19:09:09.095Z,11.50
2018-05-15T19:11:37.552Z,10.47
2018-05-15T19:14:05.949Z,13.07
2018-05-15T19:16:34.425Z,13.27
2018-05-15T19:19:02.867Z,15.23
2018-05-15T19:21:31.324Z,9.07
2018-05-15T19:23:59.769Z,12.60
2018-05-15T19:26:28.956Z,6.57
2018-05-15T19:28:57.351Z,9.90
2018-05-15T19:31:31.296Z,5.30
2018-05-15T19:33:59.741Z,5.87
2018-05-15T19:36:31.779Z,7.20
2018-05-15T19:39:06.108Z,9.77
2018-05-15T19:41:34.576Z,7.13
2018-05-15T19:44:02.982Z,7.63
2018-05-15T19:46:31.372Z,6.93
2018-05-15T19:48:59.808Z,5.37
2018-05-15T19:51:28.883Z,5.27
2018-05-15T19:53:57.293Z,5.43
2018-05-15T19:56:25.711Z,4.40
2018-05-15T19:58:54.124Z,7.50
2018-05-15T20:01:22.549Z,5.87
2018-05-15T20:03:50.995Z,3.00
2018-05-15T20:06:19.378Z,3.13
2018-05-15T20:08:47.831Z,3.23
2018-05-15T20:11:16.206Z,4.03
2018-05-15T20:13:44.591Z,6.03
2018-05-15T20:16:13.101Z,9.00
2018-05-15T20:18:41.432Z,5.00
2018-05-15T20:21:09.869Z,6.77
2018-05-15T20:23:38.268Z,6.27
2018-05-15T20:26:06.695Z,5.67
2018-05-15T20:28:35.109Z,6.60
2018-05-15T20:31:03.559Z,4.23
2018-05-15T20:33:31.997Z,4.97
2018-05-15T20:36:00.435Z,6.53
2018-05-15T20:38:28.909Z,5.47
2018-05-15T20:40:57.288Z,4.97
2018-05-15T20:43:25.742Z,7.30
2018-05-15T20:45:54.180Z,8.83
2018-05-15T20:48:22.633Z,9.33
2018-05-15T20:50:51.060Z,13.10
2018-05-15T20:53:19.448Z,8.83
2018-05-15T20:55:47.867Z,10.00
2018-05-15T20:58:16.243Z,7.00
2018-05-15T21:00:44.679Z,9.47
2018-05-15T21:03:13.060Z,9.17
2018-05-15T21:05:41.451Z,9.13
2018-05-15T21:08:09.919Z,11.47
2018-05-15T21:10:38.331Z,14.63
2018-05-15T21:13:06.778Z,12.27
2018-05-15T21:15:35.192Z,15.17
2018-05-15T21:18:03.643Z,16.47
2018-05-15T21:20:32.080Z,18.87
2018-05-15T21:23:00.536Z,18.47
2018-05-15T21:25:28.999Z,19.37
2018-05-15T21:27:57.402Z,21.93
2018-05-15T21:30:25.839Z,22.23
2018-05-15T21:32:54.279Z,24.03
2018-05-15T21:35:22.690Z,23.17
2018-05-15T21:37:51.146Z,27.97
2018-05-15T21:40:19.583Z,32.33
2018-05-15T21:42:48.030Z,23.57
2018-05-15T21:45:16.435Z,18.83
2018-05-15T21:47:44.899Z,18.80
2018-05-15T21:50:13.483Z,12.83
2018-05-15T21:52:42.023Z,12.13
2018-05-15T21:55:10.348Z,13.53
2018-05-15T21:57:38.919Z,20.37
2018-05-15T22:00:07.351Z,14.37
2018-05-15T22:02:35.785Z,14.03
2018-05-15T22:05:04.245Z,17.40
2018-05-15T22:07:32.730Z,17.03
2018-05-15T22:10:01.171Z,12.37
2018-05-15T22:12:41.307Z,14.33
2018-05-15T22:15:27.393Z,17.30
2018-05-15T22:18:13.888Z,43.90
2018-05-15T22:21:00.466Z,50.57
2018-05-15T22:23:34.181Z,70.90
2018-05-15T22:26:02.348Z,64.60
2018-05-15T22:28:30.786Z,67.60
2018-05-15T22:30:59.235Z,54.03
2018-05-15T22:33:27.708Z,38.40
2018-05-15T22:35:56.168Z,44.93
2018-05-15T22:38:24.640Z,46.80
2018-05-15T22:40:53.031Z,45.30
2018-05-15T22:43:21.456Z,43.53
2018-05-15T22:45:49.876Z,52.90
2018-05-15T22:48:18.271Z,50.47
2018-05-15T22:50:46.663Z,41.83
2018-05-15T22:53:15.135Z,43.17
2018-05-15T22:55:43.544Z,48.87
2018-05-15T22:58:11.995Z,53.97
2018-05-15T23:00:40.412Z,48.23
2018-05-15T23:03:08.851Z,54.33
2018-05-15T23:05:37.239Z,45.47
2018-05-15T23:08:05.706Z,22.47
2018-05-15T23:10:34.127Z,25.57
2018-05-15T23:13:02.600Z,32.53
2018-05-15T23:15:31.066Z,26.77
2018-05-15T23:17:59.504Z,22.80
2018-05-15T23:20:27.954Z,25.27
2018-05-15T23:22:56.367Z,30.77
2018-05-15T23:25:24.811Z,28.07
2018-05-15T23:27:53.267Z,34.47
2018-05-15T23:30:21.732Z,30.73
2018-05-15T23:32:50.146Z,31.87
2018-05-15T23:35:18.571Z,34.27
2018-05-15T23:37:46.966Z,34.57
2018-05-15T23:40:15.409Z,47.43
2018-05-15T23:42:43.864Z,42.97
2018-05-15T23:45:12.299Z,44.50
2018-05-15T23:47:40.747Z,49.13
2018-05-15T23:50:09.196Z,52.37
2018-05-15T23:52:37.624Z,46.03
2018-05-15T23:55:06.031Z,50.53
2018-05-15T23:57:34.512Z,65.37
